createdAt,value
2023-05-02T00:00:21.696Z,56.54
2023-05-02T00:02:46.787Z,56.95
2023-05-02T00:05:10.625Z,57.04
2023-05-02T00:07:34.277Z,57.24
2023-05-02T00:09:58.207Z,56.58
2023-05-02T00:12:23.165Z,57.02
2023-05-02T00:14:46.665Z,58.29
2023-05-02T00:17:10.435Z,57.07
2023-05-02T00:19:40.187Z,57.59
2023-05-02T00:22:03.797Z,57.94
2023-05-02T00:24:27.943Z,58.12
2023-05-02T00:26:51.594Z,58.38
2023-05-02T00:29:15.354Z,57.64
2023-05-02T00:31:39.084Z,57.58
2023-05-02T00:34:02.652Z,57.59
2023-05-02T00:36:28.172Z,59.01
2023-05-02T00:38:51.720Z,58.24
2023-05-02T00:41:15.964Z,60.16
2023-05-02T00:43:41.127Z,59.14
2023-05-02T00:46:05.246Z,58.34
2023-05-02T00:48:29.172Z,58.46
2023-05-02T00:50:53.385Z,58.34
2023-05-02T00:53:18.424Z,58.49
2023-05-02T00:55:42.089Z,57.32
2023-05-02T00:58:09.354Z,57.39
2023-05-02T01:00:44.243Z,57.24
2023-05-02T01:03:19.279Z,57.22
2023-05-02T01:05:58.504Z,55.89
2023-05-02T01:08:35.603Z,57.60
2023-05-02T01:11:09.167Z,55.67
2023-05-02T01:13:36.432Z,55.95
2023-05-02T01:16:03.140Z,55.76
2023-05-02T01:18:32.512Z,56.20
2023-05-02T01:21:02.042Z,55.91
2023-05-02T01:23:41.135Z,55.64
2023-05-02T01:26:18.734Z,55.75
2023-05-02T01:29:00.032Z,56.12
2023-05-02T01:31:25.093Z,57.51
2023-05-02T01:33:50.423Z,56.83
2023-05-02T01:36:15.637Z,56.17
2023-05-02T01:38:40.620Z,55.83
2023-05-02T01:41:07.387Z,56.32
2023-05-02T01:43:34.338Z,56.80
2023-05-02T01:46:00.763Z,56.73
2023-05-02T01:48:26.415Z,55.81
2023-05-02T01:50:52.424Z,56.29
2023-05-02T01:53:16.118Z,56.53
2023-05-02T01:55:40.873Z,57.26
2023-05-02T01:58:05.378Z,57.40
2023-05-02T02:00:31.584Z,57.36
2023-05-02T02:02:58.926Z,59.19
2023-05-02T02:05:24.554Z,58.70
2023-05-02T02:07:48.309Z,59.19
2023-05-02T02:10:12.406Z,60.13
2023-05-02T02:12:43.130Z,60.27
2023-05-02T02:15:18.200Z,59.85
2023-05-02T02:17:46.433Z,60.19
2023-05-02T02:20:14.659Z,60.45
2023-05-02T02:22:42.602Z,59.42
2023-05-02T02:25:09.266Z,60.50
2023-05-02T02:27:33.066Z,60.58
2023-05-02T02:29:57.706Z,61.32
2023-05-02T02:32:21.340Z,61.74
2023-05-02T02:34:44.953Z,61.61
2023-05-02T02:37:20.606Z,61.82
2023-05-02T02:39:56.388Z,61.90
2023-05-02T02:42:36.128Z,61.35
2023-05-02T02:45:09.439Z,61.63
2023-05-02T02:47:42.972Z,61.26
2023-05-02T02:50:17.889Z,60.83
2023-05-02T02:52:55.102Z,61.24
2023-05-02T02:55:33.257Z,62.27
2023-05-02T02:58:02.124Z,62.40
2023-05-02T03:00:29.225Z,62.01
2023-05-02T03:02:55.516Z,61.88
2023-05-02T03:05:19.761Z,62.65
2023-05-02T03:07:44.815Z,62.94
2023-05-02T03:10:09.690Z,62.01
2023-05-02T03:12:35.338Z,62.10
2023-05-02T03:15:20.607Z,63.09
2023-05-02T03:17:44.383Z,62.26
2023-05-02T03:20:09.331Z,63.61
2023-05-02T03:22:32.948Z,62.82
2023-05-02T03:24:58.725Z,63.56
2023-05-02T03:27:22.932Z,64.34
2023-05-02T03:29:47.849Z,63.61
2023-05-02T03:32:11.658Z,63.60
2023-05-02T03:34:37.093Z,63.37
2023-05-02T03:37:00.796Z,63.75
2023-05-02T03:39:25.476Z,64.02
2023-05-02T03:41:50.488Z,63.69
2023-05-02T03:44:16.844Z,64.90
2023-05-02T03:46:40.732Z,65.63
2023-05-02T03:49:08.325Z,64.69
2023-05-02T03:51:33.742Z,63.36
2023-05-02T03:53:57.314Z,63.70
2023-05-02T03:56:21.361Z,62.61
2023-05-02T03:58:56.589Z,64.09
2023-05-02T04:01:22.214Z,62.29
2023-05-02T04:03:47.321Z,63.63
2023-05-02T04:06:14.098Z,64.23
2023-05-02T04:08:40.320Z,63.30
2023-05-02T04:11:04.043Z,63.54
2023-05-02T04:13:29.131Z,64.84
2023-05-02T04:15:55.407Z,67.11
2023-05-02T04:18:21.536Z,66.64
2023-05-02T04:20:45.794Z,66.50
2023-05-02T04:23:12.545Z,67.52
2023-05-02T04:25:36.321Z,67.40
2023-05-02T04:28:01.052Z,67.00
2023-05-02T04:30:24.776Z,67.56
2023-05-02T04:33:16.284Z,67.31
2023-05-02T04:35:41.795Z,67.82
2023-05-02T04:38:08.512Z,67.64
2023-05-02T04:40:33.688Z,67.14
2023-05-02T04:43:02.008Z,67.97
2023-05-02T04:45:33.802Z,67.57
2023-05-02T04:47:57.983Z,67.44
2023-05-02T04:50:23.420Z,67.45
2023-05-02T04:52:47.610Z,67.29
2023-05-02T04:55:12.201Z,67.84
2023-05-02T04:57:37.141Z,67.05
2023-05-02T05:00:01.051Z,66.91
2023-05-02T05:02:25.922Z,66.70
2023-05-02T05:04:50.835Z,67.00
2023-05-02T05:07:17.462Z,65.95
2023-05-02T05:09:43.043Z,67.10
2023-05-02T05:12:07.696Z,65.88
2023-05-02T05:14:32.691Z,65.57
2023-05-02T05:16:56.329Z,65.66
2023-05-02T05:19:20.156Z,65.85
2023-05-02T05:21:43.837Z,65.79
2023-05-02T05:24:09.398Z,66.51
2023-05-02T05:26:33.067Z,66.23
2023-05-02T05:28:56.618Z,65.31
2023-05-02T05:31:24.494Z,65.64
2023-05-02T05:33:51.836Z,64.89
2023-05-02T05:36:17.256Z,65.22
2023-05-02T05:38:40.892Z,64.55
2023-05-02T05:41:09.045Z,64.20
2023-05-02T05:43:38.024Z,64.86
2023-05-02T05:46:03.071Z,64.12
2023-05-02T05:48:29.001Z,63.03
2023-05-02T05:50:53.189Z,62.60
2023-05-02T05:53:17.133Z,62.26
2023-05-02T05:55:43.373Z,62.44
2023-05-02T05:58:08.442Z,61.91
2023-05-02T06:00:33.031Z,61.16
2023-05-02T06:02:57.722Z,61.78
2023-05-02T06:05:24.278Z,59.67
2023-05-02T06:07:48.354Z,60.38
2023-05-02T06:10:12.505Z,59.63
2023-05-02T06:12:38.706Z,57.50
2023-05-02T06:15:05.850Z,58.79
2023-05-02T06:17:29.669Z,59.08
2023-05-02T06:19:53.563Z,56.70
2023-05-02T06:22:18.053Z,57.45
2023-05-02T06:24:41.754Z,57.70
2023-05-02T06:27:05.457Z,57.80
2023-05-02T06:29:29.054Z,55.85
2023-05-02T06:31:57.179Z,56.96
2023-05-02T06:34:20.781Z,56.79
2023-05-02T06:36:44.313Z,55.82
2023-05-02T06:39:07.901Z,53.95
2023-05-02T06:41:31.407Z,53.21
2023-05-02T06:43:54.991Z,55.41
2023-05-02T06:46:18.857Z,55.70
2023-05-02T06:48:43.947Z,54.27
2023-05-02T06:51:07.553Z,53.42
2023-05-02T06:53:33.015Z,52.92
2023-05-02T06:55:56.890Z,52.38
2023-05-02T06:58:20.667Z,52.81
2023-05-02T07:00:44.379Z,51.93
2023-05-02T07:03:08.188Z,51.74
2023-05-02T07:05:33.241Z,51.61
2023-05-02T07:07:56.912Z,51.98
2023-05-02T07:10:20.465Z,52.37
2023-05-02T07:12:44.036Z,52.54
2023-05-02T07:15:08.998Z,51.11
2023-05-02T07:17:32.703Z,53.15
2023-05-02T07:19:56.525Z,54.35
2023-05-02T07:22:22.340Z,53.38
2023-05-02T07:24:46.325Z,53.25
2023-05-02T07:27:10.832Z,53.99
2023-05-02T07:29:34.375Z,53.12
2023-05-02T07:31:58.009Z,54.11
2023-05-02T07:34:21.560Z,53.25
2023-05-02T07:36:45.236Z,51.47
2023-05-02T07:39:10.506Z,53.79
2023-05-02T07:41:34.174Z,52.46
2023-05-02T07:43:58.341Z,52.70
2023-05-02T07:46:22.115Z,52.38
2023-05-02T07:48:46.207Z,52.88
2023-05-02T07:51:11.129Z,52.68
2023-05-02T07:53:34.927Z,54.93
2023-05-02T07:56:00.019Z,54.74
2023-05-02T07:58:23.565Z,55.95
2023-05-02T08:00:47.134Z,55.26
2023-05-02T08:03:10.747Z,55.76
2023-05-02T08:05:34.469Z,54.30
2023-05-02T08:07:58.064Z,54.22
2023-05-02T08:10:23.296Z,54.49
2023-05-02T08:12:48.250Z,54.07
2023-05-02T08:15:14.601Z,55.82
2023-05-02T08:17:38.743Z,56.17
2023-05-02T08:20:02.700Z,55.99
2023-05-02T08:22:26.466Z,56.96
2023-05-02T08:24:50.057Z,56.93
2023-05-02T08:27:13.581Z,57.70
2023-05-02T08:29:39.000Z,57.70
2023-05-02T08:32:02.634Z,56.93
2023-05-02T08:34:26.483Z,57.33
2023-05-02T08:36:50.132Z,57.21
2023-05-02T08:39:13.701Z,57.95
2023-05-02T08:41:37.296Z,57.73
2023-05-02T08:44:01.469Z,58.84
2023-05-02T08:46:27.720Z,58.37
2023-05-02T08:48:52.833Z,60.55
2023-05-02T08:53:47.083Z,59.13
2023-05-02T08:56:12.885Z,60.19
2023-05-02T08:58:38.163Z,59.55
2023-05-02T09:01:05.264Z,60.97
2023-05-02T09:03:33.354Z,60.67
2023-05-02T09:06:06.345Z,61.50
2023-05-02T09:08:30.053Z,60.91
2023-05-02T09:10:53.795Z,60.91
2023-05-02T09:13:35.746Z,61.50
2023-05-02T09:16:01.430Z,62.38
2023-05-02T09:18:25.499Z,63.49
2023-05-02T09:20:50.626Z,63.14
2023-05-02T09:23:14.272Z,64.84
2023-05-02T09:25:38.781Z,63.56
2023-05-02T09:28:02.290Z,63.77
2023-05-02T09:30:27.765Z,62.69
2023-05-02T09:32:54.002Z,63.09
2023-05-02T09:35:23.682Z,62.50
2023-05-02T09:37:48.653Z,62.80
2023-05-02T09:40:13.453Z,62.61
2023-05-02T09:42:37.573Z,61.56
2023-05-02T09:45:01.334Z,62.54
2023-05-02T09:47:27.686Z,61.96
2023-05-02T09:49:51.262Z,60.92
2023-05-02T09:52:16.724Z,62.52
2023-05-02T09:54:41.938Z,62.27
2023-05-02T09:57:07.364Z,64.10
2023-05-02T09:59:31.153Z,64.41
2023-05-02T10:01:59.110Z,65.49
2023-05-02T10:04:23.101Z,64.47
2023-05-02T10:06:47.532Z,64.61
2023-05-02T10:09:16.054Z,64.05
2023-05-02T10:11:45.700Z,64.33
2023-05-02T10:14:12.189Z,63.68
2023-05-02T10:16:41.389Z,64.73
2023-05-02T10:19:09.304Z,64.94
2023-05-02T10:21:33.640Z,64.82
2023-05-02T10:23:57.542Z,64.58
2023-05-02T10:26:23.325Z,63.51
2023-05-02T10:28:49.113Z,64.41
2023-05-02T10:31:12.988Z,64.19
2023-05-02T10:33:37.999Z,64.74
2023-05-02T10:36:01.716Z,67.46
2023-05-02T10:38:25.677Z,65.47
2023-05-02T10:40:56.074Z,67.65
2023-05-02T10:43:19.899Z,64.93
2023-05-02T10:45:44.898Z,66.17
2023-05-02T10:48:16.404Z,67.12
2023-05-02T10:50:51.447Z,67.47
2023-05-02T10:53:33.496Z,66.81
2023-05-02T10:56:18.679Z,66.36
2023-05-02T10:58:43.225Z,65.87
2023-05-02T11:01:40.081Z,64.79
2023-05-02T11:04:05.481Z,65.13
2023-05-02T11:06:31.034Z,64.52
2023-05-02T11:08:54.946Z,63.87
2023-05-02T11:11:43.806Z,62.08
2023-05-02T11:14:07.564Z,59.58
2023-05-02T11:17:11.193Z,60.10
2023-05-02T11:20:27.874Z,57.38
2023-05-02T11:22:52.578Z,56.61
2023-05-02T11:25:36.582Z,55.58
2023-05-02T11:28:00.343Z,57.88
2023-05-02T11:30:43.941Z,56.70
2023-05-02T11:33:17.899Z,59.69
2023-05-02T11:35:44.916Z,55.90
2023-05-02T11:38:12.640Z,55.90
2023-05-02T11:40:36.296Z,54.63
2023-05-02T11:43:01.785Z,54.56
2023-05-02T11:45:36.256Z,56.27
2023-05-02T11:48:00.158Z,53.99
2023-05-02T11:50:25.967Z,54.11
2023-05-02T11:52:49.618Z,54.26
2023-05-02T11:55:15.202Z,52.65
2023-05-02T11:57:39.601Z,53.88
2023-05-02T12:00:04.230Z,53.62
2023-05-02T12:02:40.335Z,53.90
2023-05-02T12:05:06.062Z,52.23
2023-05-02T12:07:38.819Z,53.41
2023-05-02T12:10:02.399Z,53.30
2023-05-02T12:12:26.543Z,52.72
2023-05-02T12:14:50.240Z,54.50
2023-05-02T12:17:14.090Z,50.49
2023-05-02T12:19:38.268Z,51.11
2023-05-02T12:22:01.837Z,52.46
2023-05-02T12:24:27.100Z,52.75
2023-05-02T12:26:53.064Z,53.08
2023-05-02T12:29:17.016Z,50.98
2023-05-02T12:31:40.601Z,51.62
2023-05-02T12:34:04.241Z,51.09
2023-05-02T12:36:29.543Z,51.76
2023-05-02T12:38:54.914Z,49.11
2023-05-02T12:41:20.912Z,49.51
2023-05-02T12:43:49.715Z,50.15
2023-05-02T12:46:13.811Z,49.10
2023-05-02T12:48:37.452Z,50.19
2023-05-02T12:51:01.235Z,50.80
2023-05-02T12:53:41.221Z,50.07
2023-05-02T12:56:05.331Z,51.07
2023-05-02T12:58:30.776Z,50.05
2023-05-02T13:00:54.437Z,49.93
2023-05-02T13:03:18.212Z,52.05
2023-05-02T13:05:42.035Z,50.61
2023-05-02T13:08:06.414Z,47.54
2023-05-02T13:10:30.258Z,48.11
2023-05-02T13:12:54.427Z,47.95
2023-05-02T13:15:20.068Z,49.08
2023-05-02T13:17:43.950Z,49.04
2023-05-02T13:20:09.395Z,47.22
2023-05-02T13:22:32.984Z,47.10
2023-05-02T13:24:56.783Z,45.75
2023-05-02T13:27:20.411Z,48.43
2023-05-02T13:29:43.997Z,48.40
2023-05-02T13:32:08.941Z,47.83
2023-05-02T13:34:32.521Z,47.02
2023-05-02T13:36:56.840Z,46.05
2023-05-02T13:39:21.147Z,45.69
2023-05-02T13:41:44.672Z,48.50
2023-05-02T13:44:09.338Z,48.19
2023-05-02T13:46:36.555Z,47.08
2023-05-02T13:49:02.538Z,45.59
2023-05-02T13:51:27.419Z,45.88
2023-05-02T13:53:51.044Z,46.60
2023-05-02T13:56:14.561Z,47.02
2023-05-02T13:58:38.656Z,47.39
2023-05-02T14:01:02.212Z,49.19
2023-05-02T14:03:26.216Z,46.41
2023-05-02T14:05:51.273Z,47.45
2023-05-02T14:08:18.405Z,48.20
2023-05-02T14:10:42.117Z,46.73
2023-05-02T14:13:05.834Z,49.88
2023-05-02T14:15:29.587Z,47.12
2023-05-02T14:17:53.391Z,47.85
2023-05-02T14:20:16.950Z,48.68
2023-05-02T14:22:42.036Z,47.83
2023-05-02T14:25:06.486Z,48.94
2023-05-02T14:27:30.114Z,47.12
2023-05-02T14:29:53.656Z,49.59
2023-05-02T14:32:17.319Z,49.12
2023-05-02T14:34:41.681Z,48.96
2023-05-02T14:37:05.382Z,47.76
2023-05-02T14:39:30.317Z,47.94
2023-05-02T14:41:53.893Z,48.22
2023-05-02T14:44:18.645Z,50.26
2023-05-02T14:46:42.438Z,48.72
2023-05-02T14:49:06.032Z,48.33
2023-05-02T14:51:29.598Z,49.14
2023-05-02T14:53:54.387Z,48.27
2023-05-02T14:56:19.485Z,50.49
2023-05-02T14:58:43.030Z,50.31
2023-05-02T15:01:06.760Z,50.13
2023-05-02T15:03:30.478Z,48.81
2023-05-02T15:05:54.144Z,48.37
2023-05-02T15:08:17.653Z,48.27
2023-05-02T15:10:41.579Z,46.84
2023-05-02T15:13:07.555Z,47.18
2023-05-02T15:15:31.257Z,48.06
2023-05-02T15:17:54.850Z,47.14
2023-05-02T15:20:18.630Z,46.98
2023-05-02T15:22:42.129Z,46.56
2023-05-02T15:25:06.931Z,47.94
2023-05-02T15:27:30.544Z,45.97
2023-05-02T15:29:55.516Z,47.35
2023-05-02T15:32:19.250Z,46.60
2023-05-02T15:34:42.845Z,47.68
2023-05-02T15:37:06.433Z,47.91
2023-05-02T15:39:29.991Z,46.57
2023-05-02T15:41:53.672Z,46.62
2023-05-02T15:44:17.327Z,46.73
2023-05-02T15:46:46.756Z,46.78
2023-05-02T15:49:10.917Z,47.61
2023-05-02T15:51:34.425Z,46.67
2023-05-02T15:53:58.531Z,46.70
2023-05-02T15:56:22.252Z,46.22
2023-05-02T15:58:46.374Z,46.41
2023-05-02T16:01:10.605Z,47.40
2023-05-02T16:03:35.781Z,47.77
2023-05-02T16:06:00.178Z,48.50
2023-05-02T16:08:23.938Z,47.93
2023-05-02T16:10:47.484Z,46.91
2023-05-02T16:13:11.188Z,47.58
2023-05-02T16:15:34.734Z,46.68
2023-05-02T16:17:58.463Z,47.63
2023-05-02T16:20:23.441Z,47.18
2023-05-02T16:22:48.261Z,47.95
2023-05-02T16:25:11.983Z,48.72
2023-05-02T16:27:35.575Z,47.05
2023-05-02T16:30:00.568Z,47.84
2023-05-02T16:32:24.471Z,46.55
2023-05-02T16:34:48.041Z,47.48
2023-05-02T16:37:13.706Z,45.27
2023-05-02T16:39:37.940Z,47.22
2023-05-02T16:42:01.871Z,47.47
2023-05-02T16:44:25.562Z,46.30
2023-05-02T16:46:49.157Z,45.74
2023-05-02T16:49:12.689Z,46.32
2023-05-02T16:51:36.296Z,46.47
2023-05-02T16:54:01.218Z,45.65
2023-05-02T16:56:24.831Z,46.38
2023-05-02T16:58:48.336Z,45.48
2023-05-02T17:01:12.067Z,46.33
2023-05-02T17:03:35.665Z,45.00
2023-05-02T17:06:02.937Z,46.66
2023-05-02T17:08:26.803Z,47.80
2023-05-02T17:10:52.550Z,45.79
2023-05-02T17:13:16.271Z,48.67
2023-05-02T17:15:40.004Z,46.27
2023-05-02T17:18:03.745Z,45.70
2023-05-02T17:20:27.410Z,46.34
2023-05-02T17:22:51.302Z,45.31
2023-05-02T17:25:15.627Z,46.50
2023-05-02T17:27:41.347Z,46.95
2023-05-02T17:30:06.109Z,46.95
2023-05-02T17:32:29.697Z,46.58
2023-05-02T17:34:53.307Z,47.22
2023-05-02T17:37:17.018Z,47.01
2023-05-02T17:39:40.627Z,46.06
2023-05-02T17:42:04.180Z,45.10
2023-05-02T17:44:31.189Z,45.82
2023-05-02T17:46:55.031Z,46.19
2023-05-02T17:49:18.595Z,47.47
2023-05-02T17:51:42.162Z,46.65
2023-05-02T17:54:05.896Z,46.51
2023-05-02T17:56:30.112Z,46.53
2023-05-02T17:58:53.838Z,46.08
2023-05-02T18:01:18.763Z,47.17
2023-05-02T18:03:42.759Z,46.98
2023-05-02T18:06:07.054Z,45.68
2023-05-02T18:08:31.308Z,45.10
2023-05-02T18:10:54.906Z,46.05
2023-05-02T18:13:18.543Z,45.64
2023-05-02T18:15:42.144Z,45.37
2023-05-02T18:18:07.474Z,46.70
2023-05-02T18:20:31.182Z,45.97
2023-05-02T18:22:59.104Z,46.86
2023-05-02T18:25:22.717Z,46.93
2023-05-02T18:27:46.396Z,45.19
2023-05-02T18:30:11.112Z,47.43
2023-05-02T18:32:35.705Z,46.01
2023-05-02T18:35:00.935Z,48.59
2023-05-02T18:37:31.161Z,47.24
2023-05-02T18:39:56.306Z,47.61
2023-05-02T18:42:19.927Z,47.63
2023-05-02T18:44:43.464Z,45.92
2023-05-02T18:47:07.114Z,48.43
2023-05-02T18:49:30.840Z,47.83
2023-05-02T18:51:56.937Z,46.27
2023-05-02T18:54:20.580Z,47.49
2023-05-02T18:56:44.519Z,47.08
2023-05-02T18:59:08.233Z,48.36
2023-05-02T19:01:31.851Z,49.21
2023-05-02T19:03:55.613Z,49.19
2023-05-02T19:06:20.314Z,50.44
2023-05-02T19:08:46.663Z,48.48
2023-05-02T19:11:10.221Z,49.15
2023-05-02T19:13:33.844Z,48.95
2023-05-02T19:15:57.368Z,49.26
2023-05-02T19:18:23.220Z,49.13
2023-05-02T19:20:46.743Z,49.52
2023-05-02T19:23:19.586Z,49.10
2023-05-02T19:25:45.041Z,49.04
2023-05-02T19:28:08.542Z,49.29
2023-05-02T19:30:32.146Z,49.12
2023-05-02T19:32:55.817Z,48.73
2023-05-02T19:35:19.536Z,49.19
2023-05-02T19:37:44.137Z,49.01
2023-05-02T19:40:10.975Z,49.93
2023-05-02T19:42:37.464Z,49.17
2023-05-02T19:45:01.244Z,49.77
2023-05-02T19:47:27.449Z,50.44
2023-05-02T19:49:52.727Z,50.13
2023-05-02T19:52:16.290Z,50.46
2023-05-02T19:54:39.875Z,50.51
2023-05-02T19:57:04.530Z,49.58
2023-05-02T19:59:29.585Z,50.13
2023-05-02T20:01:53.764Z,50.34
2023-05-02T20:04:17.535Z,50.57
2023-05-02T20:06:42.479Z,49.69
2023-05-02T20:09:06.696Z,50.00
2023-05-02T20:11:30.941Z,49.37
2023-05-02T20:13:55.436Z,49.78
2023-05-02T20:16:20.657Z,50.53
2023-05-02T20:18:44.387Z,51.48
2023-05-02T20:21:08.009Z,50.36
2023-05-02T20:23:31.664Z,51.20
2023-05-02T20:25:55.191Z,51.36
2023-05-02T20:28:18.883Z,50.81
2023-05-02T20:30:43.850Z,51.43
2023-05-02T20:33:15.489Z,52.00
2023-05-02T20:35:39.960Z,51.93
2023-05-02T20:38:04.457Z,51.92
2023-05-02T20:40:28.088Z,52.45
2023-05-02T20:42:51.651Z,53.13
2023-05-02T20:45:16.593Z,51.89
2023-05-02T20:47:40.272Z,52.27
2023-05-02T20:50:07.139Z,53.12
2023-05-02T20:52:31.723Z,52.67
2023-05-02T20:54:55.775Z,53.88
2023-05-02T20:57:19.297Z,52.81
2023-05-02T20:59:44.327Z,53.15
2023-05-02T21:02:08.972Z,53.46
2023-05-02T21:04:33.213Z,53.12
2023-05-02T21:06:58.667Z,53.30
2023-05-02T21:09:22.251Z,53.81
2023-05-02T21:11:46.101Z,52.69
2023-05-02T21:14:10.169Z,53.58
2023-05-02T21:16:33.824Z,52.57
2023-05-02T21:18:57.488Z,53.47
2023-05-02T21:21:21.073Z,53.61
2023-05-02T21:23:46.045Z,53.27
2023-05-02T21:26:09.627Z,52.96
2023-05-02T21:28:33.220Z,54.18
2023-05-02T21:30:56.821Z,54.13
2023-05-02T21:33:20.414Z,54.07
2023-05-02T21:35:44.004Z,55.92
2023-05-02T21:38:07.717Z,54.88
2023-05-02T21:40:34.818Z,54.02
2023-05-02T21:42:58.558Z,53.87
2023-05-02T21:45:22.158Z,55.23
2023-05-02T21:47:45.796Z,55.67
2023-05-02T21:50:10.163Z,54.93
2023-05-02T21:52:33.771Z,53.41
2023-05-02T21:54:58.732Z,53.64
2023-05-02T21:57:23.732Z,53.67
2023-05-02T21:59:47.537Z,53.82
2023-05-02T22:02:11.845Z,53.80
2023-05-02T22:04:35.511Z,53.06
2023-05-02T22:06:59.461Z,54.03
2023-05-02T22:09:23.271Z,53.45
2023-05-02T22:11:47.197Z,53.65
2023-05-02T22:14:12.698Z,54.11
2023-05-02T22:16:37.419Z,53.79
2023-05-02T22:19:01.303Z,54.35
2023-05-02T22:21:25.383Z,53.90
2023-05-02T22:23:48.929Z,53.77
2023-05-02T22:26:12.566Z,53.41
2023-05-02T22:28:36.712Z,54.46
2023-05-02T22:31:01.677Z,53.75
2023-05-02T22:33:25.409Z,53.92
2023-05-02T22:35:48.970Z,53.44
2023-05-02T22:38:16.512Z,53.08
2023-05-02T22:40:40.059Z,56.08
2023-05-02T22:43:03.810Z,55.16
2023-05-02T22:45:27.946Z,53.94
2023-05-02T22:47:53.128Z,53.95
2023-05-02T22:50:16.829Z,54.10
2023-05-02T22:52:40.903Z,55.08
2023-05-02T22:55:04.851Z,54.82
2023-05-02T22:57:28.364Z,54.74
2023-05-02T22:59:52.033Z,54.64
2023-05-02T23:02:15.683Z,54.41
2023-05-02T23:04:41.958Z,54.76
2023-05-02T23:07:06.075Z,54.63
2023-05-02T23:09:29.678Z,54.53
2023-05-02T23:11:53.230Z,54.31
2023-05-02T23:14:16.952Z,53.34
2023-05-02T23:16:40.892Z,53.59
2023-05-02T23:19:04.536Z,54.16
2023-05-02T23:21:29.491Z,53.85
2023-05-02T23:23:53.153Z,54.70
2023-05-02T23:26:16.663Z,54.72
2023-05-02T23:28:41.261Z,54.85
2023-05-02T23:31:05.195Z,54.43
2023-05-02T23:33:28.795Z,54.20
2023-05-02T23:35:52.401Z,54.44
2023-05-02T23:38:17.690Z,55.05
2023-05-02T23:40:41.189Z,55.09
2023-05-02T23:43:05.065Z,54.72
2023-05-02T23:45:28.716Z,53.81
2023-05-02T23:47:52.356Z,54.27
2023-05-02T23:50:16.151Z,54.94
2023-05-02T23:52:39.798Z,54.11
2023-05-02T23:55:10.194Z,53.96
2023-05-02T23:57:33.959Z,54.11
2023-05-02T23:59:57.534Z,53.88
